Dallas City, Illinois
Current Conditions -  °F | °C
As of 4:15 PM on Monday 26 Jan 2015 (Local Time) from KFSW Reporting Station
Overcast Overcast  
Wind Chill: 39°   Ceiling: 2900
Heat Index: 39°   Visibility: 10mi
Dew Point: 36°   Wind: 3mph
Humidity: 87%   Direction: 160°SSE
Pressure: 29.84"   Gusts: NA
Location:  40.64°N, 91.17°W
Report Text: KFSW 262215Z AUTO 16003KT 10SM OVC029 04/02 A2984 RMK AO2
Loading
Personal Weather Stations






























Interactive Weather Map New forecast layout! Learn more

10-Day Weather Forecast

Advertisements
Track Severe Weather on mobile